Schedule Details


Flight Number: CTN320
Departure: Franjo Tudman (LDZA) at 08:30
Arrival: Ruzyne (LKPR) at 09:50
Route: PETOV DCT TISKO DCT OKF M725 TABEM Z401 VLM

Weather Information
LDZA 221600Z 21004KT CAVOK 18/12 Q1016 NOSIG
LKPR 221600Z 13008KT CAVOK 18/06 Q1013 NOSIG
Schedule Frequency

Route Map